Time;durP1;ratioP1;P1;durP2;ratioP2;P2;SDS_P1;SDS_P2;PMS_P1;PMS_P2;Temp;Humidity;BMP_temperature;BMP_pressure;BME280_temperature;BME280_humidity;BME280_pressure;Samples;Min_cycle;Max_cycle;Signal;HPM_P1;HPM_P2
2021/04/12 00:01:32;;;;;;;3.45;2.22;;;;;;;5.42;59.10;101593.88;4975035;28;20520;-91
2021/04/12 00:04:09;;;;;;;2.63;2.03;;;;;;;5.35;59.01;101595.81;4974982;28;20041;-92
2021/04/12 00:07:09;;;;;;;4.25;2.40;;;;;;;5.42;59.30;101601.72;4974972;28;20358;-91
2021/04/12 00:09:58;;;;;;;3.05;1.88;;;;;;;5.36;58.52;101594.91;4969928;28;20114;-91
2021/04/12 00:12:44;;;;;;;5.72;2.22;;;;;;;5.33;58.45;101587.19;4973474;28;20030;-91
2021/04/12 00:15:21;;;;;;;6.57;2.42;;;;;;;5.37;59.01;101587.94;4973563;28;20105;-91
2021/04/12 00:17:48;;;;;;;4.38;2.70;;;;;;;5.06;60.63;101596.59;4975038;28;20023;-90
2021/04/12 00:20:21;;;;;;;6.75;2.28;;;;;;;5.25;59.33;101593.50;4975371;28;20042;-91
2021/04/12 00:22:53;;;;;;;4.82;2.50;;;;;;;4.92;60.77;101585.69;4974840;28;20038;-91
2021/04/12 00:25:31;;;;;;;3.50;2.80;;;;;;;4.86;60.98;101589.28;4971797;28;20118;-91
2021/04/12 00:28:06;;;;;;;3.20;2.33;;;;;;;5.07;60.12;101585.25;4974833;28;20102;-90
2021/04/12 00:30:56;;;;;;;3.67;2.22;;;;;;;5.30;59.70;101582.06;4975560;28;20022;-90
2021/04/12 00:33:31;;;;;;;4.15;2.75;;;;;;;5.29;58.93;101588.19;4973144;28;20108;-91
2021/04/12 00:36:05;;;;;;;3.63;2.15;;;;;;;5.01;60.34;101580.22;4974361;28;20022;-90
2021/04/12 00:38:37;;;;;;;5.15;2.38;;;;;;;5.35;59.11;101589.72;4972783;28;20034;-91
2021/04/12 00:41:17;;;;;;;7.32;4.63;;;;;;;5.24;59.16;101592.63;4972742;28;20027;-91
2021/04/12 00:44:20;;;;;;;4.80;2.03;;;;;;;5.14;59.25;101592.03;4974239;28;20039;-90
2021/04/12 00:46:51;;;;;;;3.47;2.03;;;;;;;5.26;59.35;101597.81;4974032;28;20097;-90
2021/04/12 00:49:30;;;;;;;3.80;2.03;;;;;;;5.07;60.15;101594.81;4973036;28;20474;-90
2021/04/12 00:52:02;;;;;;;2.60;2.05;;;;;;;4.87;60.64;101595.34;4972657;28;20061;-91
2021/04/12 00:54:52;;;;;;;3.25;2.00;;;;;;;5.29;59.32;101589.91;4974082;28;20482;-91
2021/04/12 00:57:33;;;;;;;4.07;2.05;;;;;;;5.16;60.21;101599.81;4975405;28;20429;-90
2021/04/12 01:00:23;;;;;;;4.43;1.73;;;;;;;5.39;58.34;101596.59;4972496;28;20026;-90
2021/04/12 01:02:48;;;;;;;7.78;3.47;;;;;;;5.33;59.25;101592.41;4972470;28;20031;-90
2021/04/12 01:05:35;;;;;;;4.63;1.67;;;;;;;5.30;59.39;101597.69;4973162;28;20089;-90
2021/04/12 01:08:31;;;;;;;5.03;1.98;;;;;;;5.22;59.15;101591.81;4974214;28;20026;-90
2021/04/12 01:11:21;;;;;;;5.57;1.48;;;;;;;5.38;59.21;101587.06;4973713;28;20030;-90
2021/04/12 01:13:46;;;;;;;2.08;1.73;;;;;;;5.32;59.09;101588.06;4973899;28;20030;-91
2021/04/12 01:16:33;;;;;;;3.38;1.70;;;;;;;5.61;59.65;101591.63;4972518;28;20027;-91
2021/04/12 01:19:31;;;;;;;2.17;1.58;;;;;;;5.70;58.89;101586.16;4971952;28;20039;-90
2021/04/12 01:21:59;;;;;;;3.05;1.52;;;;;;;5.77;59.29;101571.19;4972510;28;20508;-91
2021/04/12 01:24:42;;;;;;;1.83;1.50;;;;;;;5.92;59.19;101580.31;4972162;28;20034;-91
2021/04/12 01:27:08;;;;;;;2.25;1.15;;;;;;;5.93;58.75;101582.03;4972201;28;20489;-91
2021/04/12 01:29:58;;;;;;;3.17;1.35;;;;;;;6.17;58.78;101590.03;4972716;28;20041;-90
2021/04/12 01:32:40;;;;;;;8.27;1.60;;;;;;;5.78;59.09;101580.72;4972213;28;20120;-90
2021/04/12 01:35:16;;;;;;;2.70;1.58;;;;;;;6.06;58.98;101578.19;4972244;28;20030;-90
2021/04/12 01:37:51;;;;;;;3.35;1.67;;;;;;;6.28;58.53;101581.00;4971941;28;20069;-89
2021/04/12 01:40:27;;;;;;;3.88;1.60;;;;;;;6.36;58.93;101578.16;4971657;28;20059;-90
2021/04/12 01:43:17;;;;;;;2.67;1.67;;;;;;;6.49;58.53;101581.19;4973022;28;20033;-90
2021/04/12 01:45:45;;;;;;;4.07;1.90;;;;;;;6.46;58.86;101570.88;4973065;28;20027;-91
2021/04/12 01:48:20;;;;;;;2.78;1.58;;;;;;;6.52;58.84;101570.69;4972550;28;20038;-91
2021/04/12 01:51:00;;;;;;;3.38;1.60;;;;;;;6.55;59.22;101581.00;4973011;28;20019;-92
2021/04/12 01:53:48;;;;;;;3.92;1.88;;;;;;;6.48;59.45;101566.47;4971979;28;20489;-91
2021/04/12 01:56:21;;;;;;;2.92;1.08;;;;;;;6.59;58.86;101566.94;4973193;28;20035;-91
2021/04/12 01:59:07;;;;;;;2.05;1.40;;;;;;;6.68;58.94;101566.66;4971475;28;20094;-92
2021/04/12 02:02:10;;;;;;;3.28;1.35;;;;;;;6.78;57.68;101564.59;4971571;28;20082;-90
2021/04/12 02:04:54;;;;;;;2.47;1.30;;;;;;;6.85;57.33;101573.06;4973108;28;20053;-91
2021/04/12 02:07:47;;;;;;;2.13;1.40;;;;;;;6.90;58.17;101563.31;4971975;28;20035;-91
2021/04/12 02:10:31;;;;;;;2.65;1.55;;;;;;;6.75;59.24;101567.28;4972731;28;20026;-91
2021/04/12 02:13:19;;;;;;;2.42;1.40;;;;;;;6.75;59.02;101555.13;4971401;28;20035;-91
2021/04/12 02:16:01;;;;;;;3.10;1.45;;;;;;;6.93;58.97;101565.81;4972886;28;20030;-91
2021/04/12 02:18:31;;;;;;;3.92;1.60;;;;;;;6.98;59.29;101571.75;4971565;28;20031;-91
2021/04/12 02:21:08;;;;;;;3.55;1.52;;;;;;;6.94;58.23;101567.53;4971882;28;20442;-91
2021/04/12 02:23:41;;;;;;;4.40;1.50;;;;;;;6.97;57.50;101559.63;4972818;28;20101;-91
2021/04/12 02:26:18;;;;;;;3.35;1.60;;;;;;;7.05;56.51;101551.47;4971612;28;20077;-91
2021/04/12 02:29:05;;;;;;;3.08;1.25;;;;;;;7.20;55.99;101550.09;4970882;28;20126;-91
2021/04/12 02:31:59;;;;;;;2.50;1.20;;;;;;;6.79;59.69;101557.59;4972363;28;20038;-92
2021/04/12 02:34:38;;;;;;;5.20;1.60;;;;;;;6.74;61.03;101553.41;4971625;28;20118;-92
2021/04/12 02:37:41;;;;;;;3.08;1.25;;;;;;;7.02;58.82;101559.44;4972835;28;20408;-91
2021/04/12 02:40:35;;;;;;;2.08;1.17;;;;;;;7.07;59.37;101541.84;4971273;28;20027;-91
2021/04/12 02:43:25;;;;;;;2.33;0.95;;;;;;;7.21;58.09;101549.19;4972694;28;20031;-91
2021/04/12 02:46:00;;;;;;;3.05;1.05;;;;;;;7.01;60.97;101537.72;4971016;28;20489;-91
2021/04/12 02:48:37;;;;;;;1.77;1.20;;;;;;;7.09;61.74;101551.34;4971173;28;20122;-91
2021/04/12 02:51:30;;;;;;;1.73;1.30;;;;;;;7.03;62.19;101537.63;4971052;28;20382;-91
2021/04/12 02:54:14;;;;;;;3.33;1.20;;;;;;;6.99;61.19;101534.28;4974469;28;20034;-92
2021/04/12 02:57:06;;;;;;;2.13;1.25;;;;;;;7.08;60.95;101528.72;4977251;28;20034;-92
2021/04/12 03:00:22;;;;;;;6.20;1.58;;;;;;;7.14;62.29;101556.41;4948423;28;20043;-91
2021/04/12 03:02:56;;;;;;;1.75;1.25;;;;;;;6.56;63.08;101572.28;4951915;28;20050;-91
2021/04/12 03:05:46;;;;;;;3.60;1.40;;;;;;;6.77;62.89;101570.69;4956733;29;20031;-92
2021/04/12 03:08:11;;;;;;;2.67;0.95;;;;;;;6.82;62.25;101565.34;4955665;29;20061;-92
2021/04/12 03:10:56;;;;;;;1.92;1.30;;;;;;;7.02;62.39;101554.22;4956837;28;20067;-92
2021/04/12 03:13:32;;;;;;;4.50;1.58;;;;;;;6.95;62.02;101540.50;4955541;28;20023;-92
2021/04/12 03:16:32;;;;;;;2.47;0.95;;;;;;;7.02;62.78;101549.84;4968142;28;20034;-92
2021/04/12 03:19:03;;;;;;;2.78;1.52;;;;;;;7.02;62.16;101547.22;4974846;28;20093;-92
2021/04/12 03:21:35;;;;;;;5.45;1.60;;;;;;;7.04;61.54;101542.81;4976367;28;20035;-92
2021/04/12 03:24:03;;;;;;;4.28;2.33;;;;;;;6.92;61.50;101540.63;4974894;28;20504;-92
2021/04/12 03:27:06;;;;;;;5.43;2.50;;;;;;;6.93;62.14;101534.47;4974901;28;20469;-92
2021/04/12 03:29:42;;;;;;;4.03;2.60;;;;;;;6.78;62.40;101535.03;4974107;28;20029;-91
2021/04/12 03:32:46;;;;;;;3.88;2.70;;;;;;;6.93;62.85;101537.09;4975152;28;20382;-91
2021/04/12 03:35:23;;;;;;;4.13;2.35;;;;;;;6.90;64.13;101540.66;4955059;28;20028;-91
2021/04/12 03:38:10;;;;;;;4.40;2.38;;;;;;;6.61;65.96;101546.88;4955098;29;20027;-91
2021/04/12 03:40:43;;;;;;;3.78;2.47;;;;;;;6.61;66.74;101539.03;4954982;28;20034;-91
2021/04/12 03:43:21;;;;;;;3.83;2.58;;;;;;;6.66;67.38;101544.97;4956325;28;20043;-91
2021/04/12 03:45:52;;;;;;;5.68;2.33;;;;;;;6.65;66.82;101551.09;4966796;28;20114;-91
2021/04/12 03:48:41;;;;;;;4.38;2.45;;;;;;;6.46;67.40;101550.00;4974134;28;20054;-91
2021/04/12 03:51:25;;;;;;;4.25;2.63;;;;;;;6.57;68.03;101552.25;4975241;28;20121;-91
2021/04/12 03:54:28;;;;;;;6.57;2.15;;;;;;;6.57;68.26;101558.31;4975455;28;20476;-91
2021/04/12 03:56:59;;;;;;;4.53;2.45;;;;;;;6.63;68.16;101550.28;4975332;28;20023;-91
2021/04/12 04:00:00;;;;;;;4.20;1.87;;;;;;;6.78;67.18;101541.09;4975195;28;20026;-91
2021/04/12 04:02:37;;;;;;;5.85;2.03;;;;;;;6.73;67.05;101541.28;4975223;28;20049;-91
2021/04/12 04:05:53;;;;;;;4.22;1.80;;;;;;;6.72;67.01;101536.09;4975006;28;20030;-91
2021/04/12 04:08:23;;;;;;;5.05;2.17;;;;;;;6.74;68.72;101540.34;4952745;28;20066;-91
2021/04/12 04:11:14;;;;;;;2.60;1.50;;;;;;;6.85;66.76;101541.72;4973764;28;20417;-91
2021/04/12 04:13:53;;;;;;;4.15;1.80;;;;;;;6.77;67.96;101534.16;4974899;28;20108;-92
2021/04/12 04:16:59;;;;;;;4.80;2.38;;;;;;;6.92;67.93;101532.78;4974400;28;20027;-91
2021/04/12 04:19:24;;;;;;;3.70;2.05;;;;;;;6.68;67.80;101531.88;4974907;28;20089;-90
2021/04/12 04:22:27;;;;;;;2.80;1.70;;;;;;;6.92;66.88;101532.78;4975201;28;20030;-91
2021/04/12 04:25:10;;;;;;;2.28;1.65;;;;;;;6.85;67.39;101526.94;4973596;28;20031;-91
2021/04/12 04:27:35;;;;;;;5.03;1.95;;;;;;;6.91;67.20;101536.28;4974692;28;20452;-91
2021/04/12 04:30:32;;;;;;;7.32;2.03;;;;;;;7.01;67.41;101532.47;4974228;28;20038;-92
2021/04/12 04:33:19;;;;;;;2.70;2.00;;;;;;;6.95;69.15;101533.53;4973354;28;20058;-91
2021/04/12 04:36:01;;;;;;;2.70;1.83;;;;;;;6.91;67.77;101525.84;4973316;28;20093;-91
2021/04/12 04:38:56;;;;;;;2.35;1.70;;;;;;;6.99;68.34;101536.91;4974621;28;20114;-90
2021/04/12 04:41:33;;;;;;;3.40;1.70;;;;;;;7.17;66.80;101526.69;4974218;28;20389;-91
2021/04/12 04:43:58;;;;;;;5.38;2.03;;;;;;;6.99;67.53;101529.06;4973027;28;20058;-90
2021/04/12 04:46:37;;;;;;;2.42;1.90;;;;;;;7.11;67.32;101533.84;4972408;28;20110;-91
2021/04/12 04:49:26;;;;;;;2.60;1.63;;;;;;;7.12;67.96;101534.72;4972743;28;20027;-91
2021/04/12 04:52:10;;;;;;;3.63;1.50;;;;;;;7.20;66.92;101531.81;4975214;28;20478;-91
2021/04/12 04:55:13;;;;;;;3.25;1.50;;;;;;;7.12;66.52;101530.31;4974030;28;20027;-91
2021/04/12 04:58:00;;;;;;;3.17;1.80;;;;;;;7.13;68.13;101532.03;4973965;28;20089;-90
2021/04/12 05:00:53;;;;;;;5.60;2.30;;;;;;;7.21;67.20;101538.72;4973953;28;20091;-91
2021/04/12 05:03:49;;;;;;;3.80;1.80;;;;;;;7.09;67.58;101540.03;4973739;28;20169;-91
2021/04/12 05:06:17;;;;;;;3.65;2.00;;;;;;;7.07;68.75;101534.00;4973860;28;20062;-90
2021/04/12 05:09:00;;;;;;;2.90;1.67;;;;;;;7.20;66.78;101542.28;4972569;28;20025;-91
2021/04/12 05:11:31;;;;;;;1.70;1.60;;;;;;;7.28;66.50;101540.22;4972657;28;20454;-91
2021/04/12 05:14:21;;;;;;;2.88;1.55;;;;;;;7.26;66.21;101544.66;4973909;28;20023;-90
2021/04/12 05:17:24;;;;;;;4.70;1.98;;;;;;;7.46;64.54;101546.53;4971886;28;20097;-91
2021/04/12 05:19:49;;;;;;;4.13;1.88;;;;;;;7.32;66.02;101549.66;4957874;28;20031;-91
2021/04/12 05:22:34;;;;;;;5.15;1.83;;;;;;;7.57;63.30;101544.41;4972425;28;20504;-91
2021/04/12 05:25:05;;;;;;;3.67;1.65;;;;;;;7.51;63.26;101545.47;4972261;28;20019;-91
2021/04/12 05:27:52;;;;;;;3.83;1.70;;;;;;;7.59;62.84;101544.34;4973603;28;20496;-91
2021/04/12 05:30:59;;;;;;;5.82;2.00;;;;;;;7.57;62.81;101547.00;4972848;28;20034;-90
2021/04/12 05:34:16;;;;;;;1.95;1.75;;;;;;;7.72;62.64;101545.56;4973188;28;20202;-90
2021/04/12 05:37:05;;;;;;;4.97;2.20;;;;;;;7.74;62.11;101554.22;4972153;28;20055;-90
2021/04/12 05:39:56;;;;;;;6.30;1.70;;;;;;;7.81;61.93;101555.69;4973416;28;20046;-91
2021/04/12 05:42:43;;;;;;;2.20;1.63;;;;;;;7.74;62.06;101559.44;4967392;28;20042;-91
2021/04/12 05:45:27;;;;;;;4.00;1.80;;;;;;;7.79;62.81;101570.59;4971995;28;20074;-91
2021/04/12 05:48:14;;;;;;;6.82;2.10;;;;;;;7.85;61.78;101572.97;4973237;28;20065;-91
2021/04/12 05:51:00;;;;;;;5.53;2.40;;;;;;;7.88;62.58;101572.00;4970437;28;20069;-91
2021/04/12 05:53:46;;;;;;;4.68;2.00;;;;;;;7.87;62.70;101573.75;4972709;28;20549;-91
2021/04/12 05:56:21;;;;;;;2.53;1.60;;;;;;;7.90;62.67;101575.44;4971745;28;20038;-91
2021/04/12 05:58:56;;;;;;;3.25;1.60;;;;;;;8.00;62.02;101565.44;4973208;28;20027;-91
2021/04/12 06:02:18;;;;;;;3.10;1.60;;;;;;;8.16;62.03;101577.03;4972963;28;20034;-91
2021/04/12 06:04:51;;;;;;;2.75;1.52;;;;;;;8.03;62.36;101567.94;4878736;29;20028;-91
2021/04/12 06:07:41;;;;;;;3.53;1.60;;;;;;;8.13;62.12;101577.97;4892095;29;20064;-91
2021/04/12 06:10:34;;;;;;;8.50;4.43;;;;;;;8.21;61.97;101587.31;4938045;28;20067;-91
2021/04/12 06:13:17;;;;;;;2.65;1.67;;;;;;;8.23;62.16;101586.31;4953646;29;20045;-90
2021/04/12 06:16:17;;;;;;;5.82;1.75;;;;;;;8.34;62.29;101578.91;4952218;29;20074;-91
2021/04/12 06:19:09;;;;;;;3.50;1.95;;;;;;;8.31;62.91;101586.91;4952338;28;20023;-92
2021/04/12 06:22:12;;;;;;;5.32;2.03;;;;;;;8.52;62.50;101589.59;4955657;28;20030;-91
2021/04/12 06:25:05;;;;;;;2.53;1.80;;;;;;;8.46;62.27;101590.69;4972803;28;20052;-92
2021/04/12 06:28:08;;;;;;;3.35;1.77;;;;;;;8.56;61.75;101593.78;4974062;28;20441;-90
2021/04/12 06:31:00;;;;;;;3.47;1.70;;;;;;;8.66;61.31;101592.50;4976549;28;20082;-91
2021/04/12 06:33:50;;;;;;;9.07;1.95;;;;;;;8.86;60.90;101603.91;4976277;28;20034;-91
2021/04/12 06:36:27;;;;;;;3.58;1.70;;;;;;;8.99;61.48;101604.28;4975400;28;20109;-90
2021/04/12 06:39:13;;;;;;;4.65;2.25;;;;;;;9.25;60.84;101605.78;4974833;28;20058;-91
2021/04/12 06:42:16;;;;;;;3.78;2.17;;;;;;;9.35;60.46;101619.31;4974043;28;20035;-90
2021/04/12 06:45:06;;;;;;;3.35;1.40;;;;;;;9.49;59.72;101609.94;4974866;28;20116;-90
2021/04/12 06:47:56;;;;;;;2.22;1.20;;;;;;;9.64;58.58;101612.81;4975475;28;20041;-90
2021/04/12 06:50:27;;;;;;;6.90;1.83;;;;;;;9.70;59.45;101608.13;4977842;28;20037;-91
2021/04/12 06:53:17;;;;;;;2.63;1.50;;;;;;;10.01;58.74;101613.72;4968652;28;20032;-90
2021/04/12 06:55:55;;;;;;;2.03;1.45;;;;;;;10.00;58.80;101618.13;4957831;28;20050;-90
2021/04/12 06:58:39;;;;;;;3.55;1.80;;;;;;;10.24;58.70;101624.00;4973973;28;20047;-91
2021/04/12 07:01:25;;;;;;;2.97;1.40;;;;;;;10.50;57.53;101619.31;4970645;28;20050;-90
2021/04/12 07:03:54;;;;;;;2.38;1.30;;;;;;;10.89;57.16;101620.94;4970648;28;20030;-90
2021/04/12 07:06:39;;;;;;;4.63;1.45;;;;;;;11.56;56.27;101627.16;4966353;28;20023;-91
2021/04/12 07:09:19;;;;;;;2.35;1.17;;;;;;;12.23;54.63;101633.22;4967377;28;20082;-90
2021/04/12 07:12:32;;;;;;;1.65;0.95;;;;;;;12.87;52.66;101628.72;4966292;28;20031;-91
2021/04/12 07:15:20;;;;;;;1.63;0.93;;;;;;;14.13;49.05;101627.31;4953582;28;20569;-91
2021/04/12 07:18:07;;;;;;;1.08;0.80;;;;;;;14.33;48.85;101628.69;4974560;28;20516;-91
2021/04/12 07:20:48;;;;;;;4.93;1.20;;;;;;;13.60;50.12;101635.84;4967929;28;20089;-91
2021/04/12 07:23:39;;;;;;;3.83;1.45;;;;;;;12.94;50.96;101642.38;4972053;28;20023;-90
2021/04/12 07:26:42;;;;;;;4.28;2.05;;;;;;;12.94;51.49;101634.47;4969820;28;20496;-91
2021/04/12 07:29:37;;;;;;;3.58;1.70;;;;;;;12.67;52.19;101650.09;4959600;28;20046;-91
2021/04/12 07:32:25;;;;;;;3.10;1.38;;;;;;;12.54;53.36;101642.03;4966536;28;20027;-90
2021/04/12 07:35:03;;;;;;;4.75;2.10;;;;;;;12.18;54.37;101651.03;4968047;28;20118;-91
2021/04/12 07:37:47;;;;;;;7.15;2.38;;;;;;;11.92;54.64;101649.00;4965348;28;20037;-90
2021/04/12 07:40:46;;;;;;;5.90;2.05;;;;;;;11.81;55.27;101649.50;4963595;28;20026;-90
2021/04/12 07:43:39;;;;;;;3.03;1.73;;;;;;;11.57;56.57;101660.44;4955252;29;20039;-90
2021/04/12 07:46:23;;;;;;;4.75;1.83;;;;;;;10.89;57.71;101655.94;4954989;28;20482;-90
2021/04/12 07:49:22;;;;;;;4.82;1.50;;;;;;;10.96;58.54;101659.13;4974633;28;20061;-92
2021/04/12 07:52:06;;;;;;;1.92;1.05;;;;;;;10.97;58.53;101660.81;4973758;28;20126;-93
2021/04/12 07:55:37;;;;;;;4.32;1.00;;;;;;;11.00;57.60;101668.56;4970436;28;20062;-92
2021/04/12 07:58:21;;;;;;;4.20;1.25;;;;;;;10.96;58.20;101661.75;4925507;29;20058;-92
2021/04/12 08:01:05;;;;;;;3.10;1.35;;;;;;;10.98;58.43;101667.78;4922516;29;20158;-91
2021/04/12 08:03:55;;;;;;;2.55;1.42;;;;;;;11.29;57.26;101671.50;4960217;28;20073;-92
2021/04/12 08:06:42;;;;;;;1.20;1.10;;;;;;;10.94;58.21;101670.63;4969737;28;20043;-91
2021/04/12 08:09:26;;;;;;;0.98;0.95;;;;;;;11.29;57.98;101669.75;4973310;28;20094;-92
2021/04/12 08:12:10;;;;;;;3.00;0.80;;;;;;;12.27;53.66;101670.75;4956664;28;20039;-90
2021/04/12 08:14:53;;;;;;;2.13;1.00;;;;;;;12.98;52.80;101669.44;4963220;28;20039;-90
2021/04/12 08:17:48;;;;;;;3.63;1.33;;;;;;;12.57;54.01;101670.00;4973869;28;20042;-91
2021/04/12 08:20:32;;;;;;;3.15;0.98;;;;;;;13.25;50.63;101674.84;4969838;28;20034;-90
2021/04/12 08:23:35;;;;;;;0.98;0.77;;;;;;;13.70;50.89;101686.28;4961650;28;20145;-90
2021/04/12 08:26:22;;;;;;;0.70;0.70;;;;;;;13.03;50.43;101684.03;4955488;28;20390;-91
2021/04/12 08:29:19;;;;;;;1.38;0.68;;;;;;;13.60;49.22;101683.34;4972992;28;20035;-90
2021/04/12 08:32:13;;;;;;;2.00;0.73;;;;;;;13.16;49.69;101691.25;4973355;28;20028;-91
2021/04/12 08:35:14;;;;;;;3.55;0.68;;;;;;;12.62;50.36;101692.53;4947055;28;20031;-90
2021/04/12 08:38:00;;;;;;;0.68;0.60;;;;;;;14.45;47.60;101686.91;4967442;28;20031;-91
2021/04/12 08:41:16;;;;;;;2.67;0.65;;;;;;;14.07;47.21;101697.22;4955291;28;20027;-90
2021/04/12 08:43:51;;;;;;;1.70;1.20;;;;;;;13.72;48.01;101697.59;4970467;28;20026;-89
2021/04/12 08:46:55;;;;;;;5.85;1.00;;;;;;;12.73;51.22;101710.34;4972877;28;20062;-89
2021/04/12 08:49:37;;;;;;;1.55;0.90;;;;;;;14.26;47.16;101703.06;4959768;28;20065;-89
2021/04/12 08:52:40;;;;;;;1.70;0.90;;;;;;;15.13;47.28;101711.63;4963864;28;20386;-89
2021/04/12 08:55:24;;;;;;;2.03;0.90;;;;;;;17.49;43.32;101716.97;4977749;28;20022;-89
2021/04/12 08:58:26;;;;;;;1.13;0.88;;;;;;;18.03;39.89;101726.97;4968653;28;20118;-89
2021/04/12 09:01:13;;;;;;;1.85;1.00;;;;;;;16.82;41.87;101733.47;4974277;28;20082;-90
2021/04/12 09:03:50;;;;;;;2.90;0.98;;;;;;;16.02;43.04;101744.47;4956803;29;20034;-88
2021/04/12 09:06:53;;;;;;;3.42;1.33;;;;;;;15.21;44.35;101745.50;4964038;28;20046;-89
2021/04/12 09:09:37;;;;;;;1.45;0.73;;;;;;;14.79;46.07;101749.97;4971912;28;20038;-90
2021/04/12 09:12:41;;;;;;;5.13;0.82;;;;;;;14.91;45.26;101743.03;4957357;28;20058;-90
2021/04/12 09:15:34;;;;;;;1.55;0.68;;;;;;;15.86;44.77;101753.47;4962301;28;20077;-90
2021/04/12 09:18:28;;;;;;;1.75;0.70;;;;;;;16.61;39.96;101755.28;4965956;28;20473;-89
2021/04/12 09:21:22;;;;;;;1.88;0.80;;;;;;;15.97;41.82;101759.81;4969776;28;20035;-89
2021/04/12 09:23:53;;;;;;;2.30;1.25;;;;;;;15.71;43.99;101764.22;4901772;28;20041;-90
2021/04/12 09:26:40;;;;;;;1.13;0.75;;;;;;;15.68;42.87;101770.59;4959471;28;20035;-89
2021/04/12 09:29:17;;;;;;;1.92;0.98;;;;;;;15.85;42.68;101772.09;4975933;28;20027;-89
2021/04/12 09:32:18;;;;;;;2.67;1.10;;;;;;;16.08;43.17;101775.81;4975087;28;20058;-89
2021/04/12 09:35:17;;;;;;;4.38;1.15;;;;;;;15.73;43.47;101771.13;4975383;28;20509;-89
2021/04/12 09:38:10;;;;;;;6.13;1.10;;;;;;;16.00;42.69;101772.84;4974495;28;20031;-89
2021/04/12 09:40:51;;;;;;;3.53;1.00;;;;;;;15.10;45.09;101775.28;4955386;28;20054;-90
2021/04/12 09:43:25;;;;;;;2.38;1.00;;;;;;;15.88;43.60;101776.31;4955291;29;20050;-90
2021/04/12 09:46:21;;;;;;;2.08;1.20;;;;;;;15.47;43.50;101784.28;4969414;28;20035;-89
2021/04/12 09:49:08;;;;;;;1.70;1.10;;;;;;;15.11;45.94;101784.09;4974806;28;20027;-89
2021/04/12 09:51:42;;;;;;;1.27;0.80;;;;;;;15.63;44.10;101796.50;4973335;28;20038;-89
2021/04/12 09:54:36;;;;;;;1.95;0.80;;;;;;;15.47;43.89;101784.28;4963769;28;20046;-90
2021/04/12 09:57:29;;;;;;;0.93;0.90;;;;;;;17.49;39.31;101777.19;4955895;28;20063;-89
2021/04/12 10:00:17;;;;;;;0.70;0.70;;;;;;;19.02;37.26;101786.47;4971314;28;20034;-89
2021/04/12 10:03:10;;;;;;;1.20;0.73;;;;;;;19.60;36.53;101790.56;4969796;28;20432;-88
2021/04/12 10:06:14;;;;;;;1.65;0.80;;;;;;;20.74;34.92;101800.31;4981467;28;20034;-88
2021/04/12 10:09:13;;;;;;;2.63;0.80;;;;;;;21.15;32.79;101800.25;4966570;28;20062;-88
2021/04/12 10:11:52;;;;;;;1.30;0.88;;;;;;;21.95;30.81;101792.88;4953667;28;20477;-88
2021/04/12 10:14:24;;;;;;;0.82;0.50;;;;;;;22.40;30.95;101802.88;4953694;28;20051;-88
2021/04/12 10:17:15;;;;;;;3.50;1.42;;;;;;;23.67;29.63;101797.47;4952310;28;20178;-88
2021/04/12 10:19:45;;;;;;;;;;;;;;;23.60;28.23;101799.09;4952421;28;20105;-88
2021/04/12 10:22:19;;;;;;;3.42;0.60;;;;;;;23.16;29.15;101807.09;4953697;28;19922;-88
2021/04/12 10:24:56;;;;;;;1.65;1.23;;;;;;;23.81;27.02;101801.44;4953385;28;20027;-88
2021/04/12 10:27:44;;;;;;;7.43;4.43;;;;;;;23.76;27.44;101807.25;4954244;28;20023;-89
2021/04/12 10:30:12;;;;;;;3.58;0.90;;;;;;;23.63;27.39;101806.81;4971738;28;20054;-89
2021/04/12 10:32:59;;;;;;;1.77;0.68;;;;;;;23.74;27.61;101813.78;4952234;28;20078;-89
2021/04/12 10:35:37;;;;;;;3.13;0.70;;;;;;;23.45;27.76;101811.38;4962684;28;20019;-89
2021/04/12 10:38:18;;;;;;;1.25;1.08;;;;;;;23.24;28.26;101820.56;4962166;28;20031;-89
2021/04/12 10:40:56;;;;;;;1.40;0.80;;;;;;;22.41;28.37;101817.94;4971478;28;20386;-88
2021/04/12 10:43:25;;;;;;;2.47;0.50;;;;;;;22.46;28.26;101820.19;4971446;28;20150;-89
2021/04/12 10:46:15;;;;;;;1.25;0.32;;;;;;;23.28;27.12;101810.38;4971361;28;20477;-89
2021/04/12 10:48:46;;;;;;;0.50;0.30;;;;;;;22.71;28.49;101815.94;4953490;29;20045;-88
2021/04/12 10:51:24;;;;;;;1.58;0.40;;;;;;;24.04;27.87;101809.81;4968280;28;20109;-89
2021/04/12 10:54:10;;;;;;;0.73;0.40;;;;;;;24.61;26.75;101816.50;4958573;28;20032;-89
2021/04/12 10:56:44;;;;;;;2.70;0.38;;;;;;;24.56;26.82;101829.56;4953271;29;20031;-89
2021/04/12 10:59:34;;;;;;;0.95;0.38;;;;;;;25.13;26.37;101832.41;4953159;28;20027;-89
2021/04/12 11:02:25;;;;;;;2.08;0.30;;;;;;;26.14;24.89;101835.78;4951532;29;20035;-89
2021/04/12 11:05:02;;;;;;;0.22;0.20;;;;;;;25.13;24.74;101825.19;4953234;29;20070;-89
2021/04/12 11:08:02;;;;;;;3.72;0.30;;;;;;;23.51;25.40;101832.19;4956715;28;20027;-89
2021/04/12 11:10:51;;;;;;;0.32;0.15;;;;;;;22.88;27.11;101831.22;4972151;28;20027;-89
2021/04/12 11:13:19;;;;;;;0.43;0.25;;;;;;;23.26;26.75;101832.00;4972979;28;20030;-89
2021/04/12 11:16:01;;;;;;;0.10;0.05;;;;;;;23.69;25.92;101827.63;4976094;28;20496;-89
2021/04/12 11:18:37;;;;;;;0.30;0.28;;;;;;;23.04;26.50;101829.75;4975580;28;20038;-89
2021/04/12 11:21:11;;;;;;;0.20;0.10;;;;;;;22.02;27.80;101831.44;4977520;28;20034;-89
2021/04/12 11:23:49;;;;;;;0.30;0.20;;;;;;;22.40;27.14;101835.00;4974817;28;20027;-89
2021/04/12 11:26:34;;;;;;;1.60;0.20;;;;;;;21.75;27.60;101840.19;4976987;28;20496;-92
2021/04/12 11:29:14;;;;;;;0.28;0.10;;;;;;;20.49;28.80;101852.28;4972195;28;20444;-90
2021/04/12 11:31:55;;;;;;;0.40;0.10;;;;;;;20.02;29.77;101854.56;4975072;28;20381;-90
2021/04/12 11:34:33;;;;;;;0.45;0.15;;;;;;;19.89;30.08;101856.59;4973452;28;20029;-89
2021/04/12 11:37:27;;;;;;;0.15;0.10;;;;;;;19.10;30.79;101854.22;4965945;28;20829;-92
2021/04/12 11:39:58;;;;;;;0.75;0.20;;;;;;;18.91;31.59;101861.00;4972773;28;20035;-89
2021/04/12 11:42:29;;;;;;;0.70;0.30;;;;;;;17.55;33.46;101856.41;4972745;28;20111;-89
2021/04/12 11:45:23;;;;;;;0.30;0.30;;;;;;;18.31;33.87;101856.88;4975148;28;20062;-89
2021/04/12 11:47:48;;;;;;;0.73;0.20;;;;;;;18.17;31.06;101860.63;4974336;28;20030;-89
2021/04/12 11:50:32;;;;;;;0.60;0.30;;;;;;;18.54;32.22;101860.38;4973796;28;20038;-89
2021/04/12 11:53:12;;;;;;;1.13;0.32;;;;;;;19.00;32.86;101852.28;4974603;28;20029;-89
2021/04/12 11:56:03;;;;;;;0.47;0.38;;;;;;;19.28;30.16;101855.38;4972968;28;20029;-88
2021/04/12 11:58:34;;;;;;;0.32;0.30;;;;;;;19.21;30.07;101856.81;4975037;28;20035;-88
2021/04/12 12:01:37;;;;;;;1.10;0.30;;;;;;;18.73;31.33;101863.28;4974742;28;20031;-88
2021/04/12 12:04:17;;;;;;;0.40;0.30;;;;;;;18.69;31.24;101861.84;4957808;29;20031;-90
2021/04/12 12:07:04;;;;;;;0.50;0.30;;;;;;;18.24;31.36;101860.00;4955911;28;20031;-91
2021/04/12 12:09:48;;;;;;;0.90;0.20;;;;;;;18.16;32.09;101867.72;4959458;28;20518;-90
2021/04/12 12:12:28;;;;;;;0.40;0.40;;;;;;;18.66;32.33;101866.56;4972416;28;20042;-89
2021/04/12 12:14:56;;;;;;;2.70;0.50;;;;;;;18.56;32.58;101863.78;4972842;28;20401;-90
2021/04/12 12:17:31;;;;;;;0.63;0.40;;;;;;;18.57;31.50;101868.97;4976632;28;20066;-90
2021/04/12 12:20:15;;;;;;;1.20;0.40;;;;;;;18.60;31.87;101863.44;4976335;28;20485;-90
2021/04/12 12:22:57;;;;;;;0.82;0.38;;;;;;;18.51;30.38;101872.13;4976231;28;20441;-89
2021/04/12 12:25:38;;;;;;;2.38;1.65;;;;;;;18.65;30.05;101878.19;4975332;28;20027;-90
2021/04/12 12:28:38;;;;;;;2.30;0.50;;;;;;;18.91;30.27;101873.47;4974598;28;20066;-89
2021/04/12 12:31:35;;;;;;;0.85;0.40;;;;;;;18.89;30.67;101870.94;4976001;28;20120;-88
2021/04/12 12:34:31;;;;;;;0.30;0.30;;;;;;;18.45;31.35;101882.41;4971941;28;20034;-89
2021/04/12 12:37:01;;;;;;;0.30;0.20;;;;;;;18.96;32.25;101880.13;4975828;28;20019;-89
2021/04/12 12:39:41;;;;;;;1.38;0.40;;;;;;;18.49;31.18;101884.69;4973433;28;20038;-90
2021/04/12 12:42:11;;;;;;;1.10;0.50;;;;;;;19.19;30.91;101885.41;4964798;28;20038;-90
2021/04/12 12:44:38;;;;;;;1.67;0.35;;;;;;;19.23;29.56;101878.84;4976704;28;20041;-91
2021/04/12 12:47:09;;;;;;;0.95;0.30;;;;;;;19.70;30.61;101876.75;4976325;28;20019;-89
2021/04/12 12:49:39;;;;;;;0.40;0.38;;;;;;;19.07;29.31;101878.41;4976967;28;20026;-89
2021/04/12 12:52:13;;;;;;;0.93;0.60;;;;;;;19.37;28.80;101878.59;4975418;28;20105;-89